Latest Weather Observations for Tindal

IDD60801

Issued at 8:35 pm CST Wednesday 26 November 2014 (issued every 30 minutes, with the page automatically refreshed every 10 minutes)

About weather observations | Map of weather stations | Latest weather observations for NT | Other Formats
Station Details ID: 014932 Name: TINDAL RAAF Lat: -14.52 Lon: 132.38 Height: 133.6 m
Data from the previous 72 hours. | See also: Recent months at Tindal
Date/Time
CST
Temp
°C
App
Temp
°C
Dew
Point
Rel
Hum
%
Delta-T
°C
Wind Press
QNH
hPa
Press
MSL
hPa
Rain
since 9 am
mm
Dir
 
Spd
km/h
Gust
km/h
Spd
kts
Gust
kts
26/08:30pm 30.1 33.7 19.8 54 6.8 CALM 0 0 0 0 1007.4 - 0.0
26/08:00pm 29.9 33.7 20.2 56 6.4 CALM 0 0 0 0 1006.9 - 0.0
26/07:30pm 30.3 34.0 19.9 53 6.9 CALM 0 2 0 1 1006.7 - 0.0
26/07:00pm 31.1 34.3 19.8 51 7.5 SSE 2 13 1 7 1006.0 - 0.0
26/06:30pm 33.5 36.3 18.0 39 10.1 CALM 0 0 0 0 1005.9 - 0.0
26/06:00pm 34.7 37.1 17.0 35 11.4 CALM 0 2 0 1 1005.5 1004.4 0.0
26/05:30pm 35.5 38.0 17.2 33 11.8 CALM 0 6 0 3 1005.2 - 0.0
26/05:00pm 35.5 38.0 17.2 33 11.8 CALM 0 7 0 4 1005.4 - 0.0
26/04:30pm 35.9 38.3 17.1 32 12.1 CALM 0 9 0 5 1005.5 - 0.0
26/04:00pm 35.6 38.7 18.7 37 11.1 CALM 0 0 0 0 1005.4 - 0.0
26/03:30pm 35.2 37.8 18.3 36 11.1 NE 2 15 1 8 1005.5 - 0.0
26/03:00pm 35.1 37.8 18.6 37 10.9 ESE 2 15 1 8 1006.0 1004.9 0.0
26/02:30pm 34.0 38.6 21.8 49 8.3 CALM 0 6 0 3 1006.3 - 0.0
26/02:00pm 34.6 38.9 22.6 49 8.3 E 4 26 2 14 1006.8 - 0.0
26/01:30pm 34.5 38.2 20.8 44 9.3 ENE 2 17 1 9 1007.4 - 0.0
26/12:30pm 31.9 37.1 22.9 59 6.2 CALM 0 0 0 0 1008.5 - 0.0
26/12:00pm 30.9 36.6 23.8 66 5.0 CALM 0 9 0 5 1009.2 1008.1 0.0
26/11:30am 29.9 35.3 23.3 67 4.6 CALM 0 2 0 1 1009.7 - 0.0
26/11:00am 29.4 34.6 22.9 68 4.5 CALM 0 0 0 0 1010.1 - 0.0
26/10:30am 29.0 34.3 23.0 70 4.1 CALM 0 0 0 0 1010.5 - 0.0
26/10:00am 28.7 34.2 23.4 73 3.7 CALM 0 4 0 2 1010.6 - 0.0
26/09:30am 28.3 33.5 22.8 72 3.8 CALM 0 9 0 5 1010.8 - 0.0
26/09:00am 27.0 32.3 23.0 79 2.7 CALM 0 - 0 - - 1009.7 15.0
26/08:57am 26.9 32.1 22.9 79 2.7 CALM 0 4 0 2 1010.7 - 15.4
26/08:30am 26.4 31.8 23.3 83 2.1 CALM 0 0 0 0 1010.8 - 15.4
26/08:15am 25.8 31.1 23.1 85 1.8 CALM 0 0 0 0 1010.6 - 15.4
26/08:00am 25.5 29.5 23.7 90 1.2 SSE 9 11 5 6 1010.4 - 15.4
26/07:30am 24.6 30.0 23.2 92 1.0 CALM 0 2 0 1 1009.9 - 15.4
26/07:00am 24.3 29.5 22.9 92 0.9 CALM 0 0 0 0 1009.8 - 15.4
26/06:30am 24.0 29.2 22.8 93 0.8 CALM 0 2 0 1 1009.5 - 15.4
26/06:00am 23.9 29.0 22.7 93 0.8 CALM 0 0 0 0 1009.0 1007.9 15.4
26/05:30am 23.9 29.0 22.7 93 0.8 CALM 0 0 0 0 1008.2 - 15.4
26/05:00am 23.8 28.2 22.8 94 0.7 S 4 17 2 9 1007.6 - 15.4
26/04:30am 23.7 28.9 22.9 95 0.5 CALM 0 13 0 7 1007.3 - 15.4
26/04:00am 23.7 28.9 22.9 95 0.5 CALM 0 0 0 0 1007.0 - 15.4
26/03:30am 23.8 29.0 22.9 95 0.6 CALM 0 0 0 0 1007.1 - 15.4
26/03:00am 23.7 28.9 22.9 95 0.5 CALM 0 0 0 0 1007.4 1006.4 15.4
26/02:30am 23.8 29.0 22.8 94 0.7 CALM 0 0 0 0 1007.5 - 15.4
26/02:00am 24.0 29.1 22.6 92 0.9 CALM 0 0 0 0 1007.8 - 15.4
26/01:30am 23.7 28.6 22.3 92 0.9 CALM 0 0 0 0 1008.1 - 15.4
26/01:00am 23.7 28.8 22.7 94 0.7 CALM 0 0 0 0 1008.7 - 15.2
26/12:31am 23.7 28.7 22.5 93 0.8 CALM 0 0 0 0 1009.6 - 15.0
26/12:30am 23.6 28.5 22.4 93 0.8 CALM 0 0 0 0 1009.6 - 15.0
26/12:00am 23.8 29.0 22.8 94 0.7 CALM 0 0 0 0 1010.5 1009.4 13.0
 
Date/Time
CST
Temp
°C
App
Temp
°C
Dew
Point
Rel
Hum
%
Delta-T
°C
Wind Press
QNH
hPa
Press
MSL
hPa
Rain
since 9 am
mm
Dir
 
Spd
km/h
Gust
km/h
Spd
kts
Gust
kts
25/11:54pm 23.7 28.8 22.7 94 0.7 CALM 0 0 0 0 1010.6 - 12.6
25/11:30pm 23.6 28.7 22.6 94 0.7 CALM 0 13 0 7 1011.0 - 11.8
25/11:00pm 23.6 28.2 22.4 93 0.8 NW 2 15 1 8 1011.0 - 11.0
25/10:44pm 23.8 27.7 22.6 93 0.8 NW 6 19 3 10 1010.8 - 10.6
25/10:30pm 24.3 28.8 22.9 92 0.9 NNW 4 15 2 8 1010.9 - 10.2
25/10:03pm 24.9 30.3 23.3 91 1.1 CALM 0 13 0 7 1011.6 - 6.0
25/10:00pm 25.0 30.4 23.2 90 1.2 CALM 0 13 0 7 1011.5 - 4.2
25/09:30pm 25.0 30.5 23.4 91 1.1 CALM 0 11 0 6 1011.0 - 2.0
25/09:00pm 24.8 30.1 23.0 90 1.2 CALM 0 0 0 0 1009.6 1008.5 1.6
25/08:30pm 24.7 29.9 22.9 90 1.2 CALM 0 13 0 7 1009.0 - 1.6
25/08:00pm 24.6 29.6 22.5 88 1.4 CALM 0 0 0 0 1008.6 - 1.6
25/07:30pm 24.5 29.3 22.2 87 1.5 CALM 0 0 0 0 1008.0 - 1.6
25/07:00pm 24.9 29.8 22.4 86 1.7 CALM 0 2 0 1 1007.8 - 1.6
25/06:30pm 24.9 29.1 23.1 90 1.2 S 6 13 3 7 1007.1 - 1.6
25/06:00pm 24.6 29.6 23.2 92 1.0 SW 2 19 1 10 1006.6 1005.6 1.6
25/05:30pm 25.0 26.2 23.2 90 1.2 SSW 22 30 12 16 1007.3 - 1.4
25/05:14pm 25.5 27.8 23.4 88 1.4 S 17 33 9 18 1007.5 - 1.2
25/05:00pm 27.1 31.6 24.0 83 2.1 NW 7 37 4 20 1006.9 - 1.0
25/04:55pm 27.6 32.3 24.0 81 2.5 NNE 6 19 3 10 1006.6 - 0.6
25/04:30pm 30.0 33.1 22.2 63 5.3 E 9 22 5 12 1006.1 - 0.0
25/04:00pm 31.4 36.0 22.4 59 6.2 NNW 2 15 1 8 1005.7 - 0.0
25/03:25pm 32.4 36.2 21.0 51 7.7 N 2 13 1 7 1005.6 - 0.0
25/03:00pm 33.3 37.2 21.8 51 7.9 N 4 17 2 9 1005.5 1004.4 0.0
25/02:30pm 35.4 39.0 20.5 41 10.1 N 2 17 1 9 1005.6 - 0.0
25/02:00pm 35.3 39.8 21.6 45 9.4 CALM 0 7 0 4 1006.7 - 0.0
25/01:30pm 34.1 38.4 21.2 47 8.8 CALM 0 0 0 0 1007.3 - 0.0
25/01:00pm 33.2 36.9 21.4 50 8.0 SW 4 13 2 7 1007.9 - 0.0
25/12:30pm 32.8 36.4 21.3 50 7.8 NNW 4 20 2 11 1008.6 - 0.0
25/12:00pm 32.9 37.8 22.4 54 7.2 CALM 0 15 0 8 1009.1 1008.0 0.0
25/11:30am 32.7 37.5 22.2 54 7.2 CALM 0 4 0 2 1009.7 - 0.0
25/11:00am 31.7 36.8 22.7 59 6.2 CALM 0 6 0 3 1010.0 - 0.0
25/10:30am 30.9 36.2 23.0 62 5.4 CALM 0 4 0 2 1010.5 - 0.0
25/10:00am 29.7 34.9 22.9 67 4.7 CALM 0 9 0 5 1010.7 - 0.0
25/09:30am 29.6 35.2 23.5 69 4.2 CALM 0 0 0 0 1010.8 - 0.0
25/09:00am 28.4 33.8 23.3 74 3.5 CALM 0 0 0 0 1011.0 1009.9 7.8
25/08:30am 27.3 33.3 24.2 83 2.2 CALM 0 0 0 0 1010.8 - 7.8
25/08:00am 26.5 32.5 24.2 87 1.6 CALM 0 0 0 0 1010.6 - 7.8
25/07:30am 26.4 32.3 24.1 87 1.6 CALM 0 0 0 0 1010.0 - 7.8
25/07:00am 26.0 31.8 23.9 88 1.4 CALM 0 0 0 0 1009.7 - 7.8
25/06:30am 25.9 31.6 23.8 88 1.4 CALM 0 0 0 0 1009.5 - 7.8
25/06:00am 25.6 31.2 23.6 89 1.4 CALM 0 0 0 0 1009.0 1007.9 7.8
25/05:30am 25.6 31.0 23.3 87 1.6 CALM 0 0 0 0 1008.5 - 7.8
25/05:00am 25.8 31.2 23.3 86 1.7 CALM 0 0 0 0 1008.3 - 7.8
25/04:30am 25.8 31.2 23.3 86 1.7 CALM 0 0 0 0 1008.3 - 7.8
25/04:00am 25.9 31.5 23.6 87 1.6 CALM 0 0 0 0 1008.7 - 7.8
25/03:30am 25.9 31.6 23.8 88 1.4 CALM 0 0 0 0 1008.6 - 7.8
25/03:00am 26.3 32.1 24.0 87 1.6 CALM 0 0 0 0 1008.7 1007.6 7.8
25/02:30am 26.3 31.9 23.6 85 1.9 CALM 0 0 0 0 1008.7 - 7.8
25/02:00am 26.2 31.8 23.5 85 1.9 CALM 0 0 0 0 1008.7 - 7.8
25/01:30am 26.4 32.2 23.9 86 1.7 CALM 0 9 0 5 1009.0 - 7.8
25/01:00am 26.7 31.7 22.5 78 2.8 CALM 0 0 0 0 1009.0 - 7.8
25/12:30am 26.6 31.9 23.1 81 2.4 CALM 0 0 0 0 1009.2 - 7.8
25/12:00am 26.7 31.9 22.8 79 2.7 CALM 0 0 0 0 1009.6 1008.5 7.8
 
Date/Time
CST
Temp
°C
App
Temp
°C
Dew
Point
Rel
Hum
%
Delta-T
°C
Wind Press
QNH
hPa
Press
MSL
hPa
Rain
since 9 am
mm
Dir
 
Spd
km/h
Gust
km/h
Spd
kts
Gust
kts
24/11:30pm 26.7 32.0 23.0 80 2.5 CALM 0 0 0 0 1009.7 - 7.8
24/11:00pm 26.8 31.7 23.1 80 2.5 SSW 2 13 1 7 1009.9 - 7.8
24/10:30pm 26.8 32.5 23.7 83 2.1 CALM 0 0 0 0 1009.8 - 7.8
24/10:00pm 26.6 32.2 23.5 83 2.1 CALM 0 0 0 0 1009.8 - 7.8
24/09:30pm 26.4 32.0 23.5 84 2.0 CALM 0 0 0 0 1009.4 - 7.8
24/09:00pm 26.2 31.8 23.5 85 1.9 CALM 0 0 0 0 1009.5 1008.4 7.8
24/08:30pm 26.0 31.6 23.5 86 1.7 CALM 0 9 0 5 1009.3 - 7.8
24/08:00pm 25.6 31.0 23.3 87 1.6 CALM 0 7 0 4 1008.9 - 7.8
24/07:42pm 25.6 30.4 22.9 85 1.8 N 2 15 1 8 1008.6 - 7.8
24/07:30pm 25.0 28.7 23.2 90 1.2 NNW 9 24 5 13 1008.6 - 7.8
24/07:17pm 25.3 26.1 23.2 88 1.4 NNE 24 39 13 21 1009.1 - 4.0
24/07:00pm 27.2 26.8 21.7 72 3.7 ENE 26 37 14 20 1009.9 - 0.0
24/06:58pm 27.3 27.0 21.8 72 3.7 ENE 26 37 14 20 1009.8 - 0.0
24/06:30pm 28.2 30.4 21.2 65 4.7 WNW 11 17 6 9 1007.8 - 0.0
24/06:00pm 28.4 30.5 20.9 64 5.0 NNW 11 24 6 13 1007.7 1006.7 0.0
24/05:30pm 29.2 31.1 20.6 59 5.7 W 11 26 6 14 1007.1 - 0.0
24/05:00pm 29.0 32.0 21.2 62 5.2 NW 7 20 4 11 1006.9 - 0.0
24/04:30pm 30.0 33.7 20.0 55 6.6 CALM 0 7 0 4 1006.9 - 0.0
24/04:00pm 29.8 31.5 18.6 51 7.3 W 7 17 4 9 1006.6 - 0.0
24/03:30pm 31.1 32.6 18.1 46 8.4 SW 7 20 4 11 1006.4 - 0.0
24/03:21pm 31.2 33.3 18.2 46 8.4 SW 4 19 2 10 1006.6 - 0.0
24/03:00pm 31.3 33.5 19.6 49 7.7 S 7 22 4 12 1006.7 1005.7 0.0
24/02:30pm 30.7 28.9 20.3 53 6.9 ENE 30 50 16 27 1006.5 - 0.0
24/02:11pm 34.3 31.2 18.3 38 10.5 E 32 50 17 27 1006.3 - 0.0
24/01:57pm 36.6 39.9 20.0 38 11.2 WSW 2 19 1 10 1006.5 - 0.0
24/01:30pm 37.3 40.3 20.1 36 11.6 W 4 20 2 11 1006.8 - 0.0
24/01:00pm 37.1 40.6 20.4 37 11.3 NW 2 24 1 13 1008.0 - 0.0
24/12:30pm 36.8 39.3 21.0 40 10.8 NNW 9 17 5 9 1009.2 - 0.0
24/12:00pm 36.1 37.9 21.1 41 10.2 WNW 13 20 7 11 1010.1 1009.0 0.0
24/11:30am 35.0 38.0 20.9 43 9.6 NNW 6 19 3 10 1010.6 - 0.0
24/11:00am 35.6 38.9 21.5 44 9.6 W 6 20 3 11 1010.9 - 0.0
24/10:30am 34.4 37.9 21.1 45 9.0 WNW 4 20 2 11 1011.2 - 0.0
24/10:00am 33.3 35.5 21.8 51 7.9 NW 13 24 7 13 1011.4 - 0.0
24/09:30am 32.2 35.1 21.7 54 7.1 WNW 9 20 5 11 1011.8 - 0.0
24/09:00am 32.0 35.8 22.4 57 6.6 WNW 6 20 3 11 1011.5 1010.4 0.0
24/08:30am 31.0 34.7 22.6 61 5.8 WNW 7 24 4 13 1011.2 - 0.0
24/08:00am 30.7 34.5 22.8 62 5.4 NW 7 20 4 11 1011.0 - 0.0
24/07:30am 29.9 33.2 22.6 65 5.0 NW 9 19 5 10 1010.8 - 0.0
24/07:00am 29.1 31.8 22.1 66 4.7 NNW 11 20 6 11 1010.8 - 0.0
24/06:30am 28.4 30.6 21.2 65 4.8 NNW 11 17 6 9 1010.6 - 0.0
24/06:00am 27.8 31.0 22.3 72 3.7 NNW 9 11 5 6 1010.3 1009.2 0.0
24/05:30am 28.2 31.1 23.1 74 3.5 NW 13 17 7 9 1010.1 - 0.0
24/05:00am 28.5 31.3 23.0 72 3.8 NNW 13 17 7 9 1010.0 - 0.0
24/04:30am 29.0 31.3 22.7 69 4.3 NW 15 20 8 11 1009.6 - 0.0
24/04:00am 29.4 31.9 23.1 69 4.3 WNW 15 19 8 10 1009.8 - 0.0
24/03:30am 29.6 32.3 23.5 69 4.2 NW 15 22 8 12 1009.6 - 0.0
24/03:00am 30.0 32.8 23.7 69 4.4 NW 15 20 8 11 1009.7 1008.6 0.0
24/02:30am 30.0 33.6 23.7 69 4.4 NW 11 19 6 10 1009.8 - 0.0
24/02:00am 30.4 33.2 23.6 67 4.7 WNW 15 22 8 12 1009.6 - 0.0
24/01:30am 31.1 32.5 21.9 58 6.3 WNW 17 26 9 14 1009.3 - 0.0
24/01:00am 31.6 33.1 21.2 54 7.0 WNW 15 24 8 13 1009.6 - 0.0
24/12:30am 32.2 35.2 20.8 51 7.7 NNW 6 19 3 10 1009.7 - 0.0
24/12:00am 32.5 34.2 20.1 48 8.3 NNW 11 28 6 15 1009.6 1008.5 0.0
 
Date/Time
CST
Temp
°C
App
Temp
°C
Dew
Point
Rel
Hum
%
Delta-T
°C
Wind Press
QNH
hPa
Press
MSL
hPa
Rain
since 9 am
mm
Dir
 
Spd
km/h
Gust
km/h
Spd
kts
Gust
kts
23/11:30pm 30.1 32.3 16.5 44 8.6 CALM 0 0 0 0 1009.3 - 0.0
23/11:00pm 30.5 32.1 15.0 39 9.5 CALM 0 0 0 0 1009.0 - 0.0
23/10:30pm 30.5 32.3 15.4 40 9.4 CALM 0 0 0 0 1008.8 - 0.0
23/10:00pm 30.8 31.7 16.0 40 9.3 ESE 6 6 3 3 1008.5 - 0.0
23/09:30pm 32.2 32.6 14.8 35 10.8 E 6 7 3 4 1008.2 - 0.0
23/09:00pm 32.9 33.0 14.0 32 11.6 E 6 7 3 4 1007.9 1006.9 0.0

Other Formats:

Comma delimited format used in spreadsheet applications
http://www.bom.gov.au/fwo/IDD60801/IDD60801.94131.axf

JavaScript Object Notation format (JSON) in row-major order
http://www.bom.gov.au/fwo/IDD60801/IDD60801.94131.json